sensor_id;sensor_type;location;lat;lon;timestamp;pressure;altitude;pressure_sealevel;temperature;humidity
41218;BME280;26950;50.960;7.138;2022-07-29T00:01:19;100442.41;;;26.87;32.48
41218;BME280;26950;50.960;7.138;2022-07-29T00:03:45;100447.00;;;26.85;32.81
41218;BME280;26950;50.960;7.138;2022-07-29T00:06:13;100442.84;;;26.99;32.71
41218;BME280;26950;50.960;7.138;2022-07-29T00:08:39;100433.91;;;26.76;32.97
41218;BME280;26950;50.960;7.138;2022-07-29T00:11:06;100443.72;;;26.77;32.92
41218;BME280;26950;50.960;7.138;2022-07-29T00:13:32;100439.53;;;26.70;33.29
41218;BME280;26950;50.960;7.138;2022-07-29T00:15:59;100444.56;;;26.79;33.12
41218;BME280;26950;50.960;7.138;2022-07-29T00:18:26;100446.56;;;26.74;33.12
41218;BME280;26950;50.960;7.138;2022-07-29T00:20:53;100437.69;;;26.72;33.09
41218;BME280;26950;50.960;7.138;2022-07-29T00:23:20;100429.94;;;26.43;33.33
41218;BME280;26950;50.960;7.138;2022-07-29T00:25:46;100426.16;;;26.69;32.99
41218;BME280;26950;50.960;7.138;2022-07-29T00:28:12;100425.03;;;26.74;32.88
41218;BME280;26950;50.960;7.138;2022-07-29T00:30:39;100420.44;;;26.76;32.95
41218;BME280;26950;50.960;7.138;2022-07-29T00:33:08;100416.00;;;26.75;33.28
41218;BME280;26950;50.960;7.138;2022-07-29T00:35:35;100415.13;;;26.75;33.62
41218;BME280;26950;50.960;7.138;2022-07-29T00:38:11;100420.44;;;26.76;33.32
41218;BME280;26950;50.960;7.138;2022-07-29T00:40:37;100424.75;;;25.43;35.62
41218;BME280;26950;50.960;7.138;2022-07-29T00:43:04;100421.84;;;25.49;36.11
41218;BME280;26950;50.960;7.138;2022-07-29T00:45:31;100417.03;;;26.27;34.32
41218;BME280;26950;50.960;7.138;2022-07-29T00:47:57;100414.72;;;26.42;34.30
41218;BME280;26950;50.960;7.138;2022-07-29T00:50:24;100420.66;;;26.50;33.92
41218;BME280;26950;50.960;7.138;2022-07-29T00:52:52;100416.94;;;26.52;33.92
41218;BME280;26950;50.960;7.138;2022-07-29T00:55:22;100421.72;;;26.46;34.07
41218;BME280;26950;50.960;7.138;2022-07-29T00:57:49;100411.78;;;26.24;34.67
41218;BME280;26950;50.960;7.138;2022-07-29T01:00:17;100405.78;;;26.41;33.97
41218;BME280;26950;50.960;7.138;2022-07-29T01:02:44;100404.66;;;26.47;33.39
41218;BME280;26950;50.960;7.138;2022-07-29T01:05:13;100403.09;;;26.41;34.24
41218;BME280;26950;50.960;7.138;2022-07-29T01:07:41;100403.56;;;25.84;34.91
41218;BME280;26950;50.960;7.138;2022-07-29T01:10:10;100408.00;;;25.85;35.54
41218;BME280;26950;50.960;7.138;2022-07-29T01:12:39;100405.94;;;25.91;35.23
41218;BME280;26950;50.960;7.138;2022-07-29T01:15:08;100403.59;;;26.27;34.53
41218;BME280;26950;50.960;7.138;2022-07-29T01:17:39;100399.59;;;26.16;34.44
41218;BME280;26950;50.960;7.138;2022-07-29T01:20:12;100405.38;;;26.28;34.43
41218;BME280;26950;50.960;7.138;2022-07-29T01:23:05;100397.72;;;26.18;34.93
41218;BME280;26950;50.960;7.138;2022-07-29T01:25:53;100396.47;;;26.26;34.29
41218;BME280;26950;50.960;7.138;2022-07-29T01:31:38;100390.34;;;26.23;34.58
41218;BME280;26950;50.960;7.138;2022-07-29T01:34:10;100384.97;;;26.23;34.98
41218;BME280;26950;50.960;7.138;2022-07-29T01:36:43;100385.06;;;26.20;34.70
41218;BME280;26950;50.960;7.138;2022-07-29T01:39:14;100371.84;;;26.15;34.73
41218;BME280;26950;50.960;7.138;2022-07-29T01:41:48;100369.09;;;26.17;34.90
41218;BME280;26950;50.960;7.138;2022-07-29T01:44:19;100370.06;;;26.14;35.20
41218;BME280;26950;50.960;7.138;2022-07-29T01:46:52;100370.31;;;26.08;35.33
41218;BME280;26950;50.960;7.138;2022-07-29T01:49:21;100362.31;;;26.06;35.32
41218;BME280;26950;50.960;7.138;2022-07-29T01:51:51;100360.31;;;25.90;35.99
41218;BME280;26950;50.960;7.138;2022-07-29T01:54:22;100355.75;;;25.92;35.85
41218;BME280;26950;50.960;7.138;2022-07-29T01:56:53;100349.50;;;25.91;35.79
41218;BME280;26950;50.960;7.138;2022-07-29T01:59:23;100343.34;;;25.88;35.88
41218;BME280;26950;50.960;7.138;2022-07-29T02:01:53;100340.56;;;25.91;35.63
41218;BME280;26950;50.960;7.138;2022-07-29T02:04:20;100334.31;;;25.90;35.24
41218;BME280;26950;50.960;7.138;2022-07-29T02:06:49;100341.78;;;25.82;35.59
41218;BME280;26950;50.960;7.138;2022-07-29T02:09:17;100338.66;;;25.93;35.01
41218;BME280;26950;50.960;7.138;2022-07-29T02:11:49;100343.81;;;25.99;34.39
41218;BME280;26950;50.960;7.138;2022-07-29T02:14:18;100347.75;;;25.90;34.55
41218;BME280;26950;50.960;7.138;2022-07-29T02:16:47;100335.09;;;25.92;34.56
41218;BME280;26950;50.960;7.138;2022-07-29T02:19:17;100341.41;;;25.91;34.10
41218;BME280;26950;50.960;7.138;2022-07-29T02:21:45;100340.94;;;26.03;33.64
41218;BME280;26950;50.960;7.138;2022-07-29T02:24:13;100341.63;;;26.08;33.93
41218;BME280;26950;50.960;7.138;2022-07-29T02:26:41;100341.19;;;25.97;33.93
41218;BME280;26950;50.960;7.138;2022-07-29T02:29:10;100350.59;;;26.07;34.03
41218;BME280;26950;50.960;7.138;2022-07-29T02:31:38;100353.84;;;25.94;34.36
41218;BME280;26950;50.960;7.138;2022-07-29T02:34:08;100361.44;;;26.06;34.24
41218;BME280;26950;50.960;7.138;2022-07-29T02:36:36;100354.41;;;26.02;33.83
41218;BME280;26950;50.960;7.138;2022-07-29T02:39:04;100367.84;;;26.02;33.75
41218;BME280;26950;50.960;7.138;2022-07-29T02:41:35;100353.38;;;26.06;33.39
41218;BME280;26950;50.960;7.138;2022-07-29T02:44:06;100357.81;;;26.07;33.62
41218;BME280;26950;50.960;7.138;2022-07-29T02:46:36;100355.94;;;26.09;33.17
41218;BME280;26950;50.960;7.138;2022-07-29T02:49:14;100347.28;;;26.01;33.52
41218;BME280;26950;50.960;7.138;2022-07-29T02:51:45;100343.91;;;25.96;33.34
41218;BME280;26950;50.960;7.138;2022-07-29T02:54:24;100341.22;;;25.96;33.48
41218;BME280;26950;50.960;7.138;2022-07-29T02:56:53;100341.66;;;25.85;33.67
41218;BME280;26950;50.960;7.138;2022-07-29T02:59:23;100333.66;;;25.84;33.95
41218;BME280;26950;50.960;7.138;2022-07-29T03:01:52;100339.84;;;25.86;34.04
41218;BME280;26950;50.960;7.138;2022-07-29T03:04:20;100342.72;;;25.81;33.95
41218;BME280;26950;50.960;7.138;2022-07-29T03:06:51;100342.63;;;25.82;34.03
41218;BME280;26950;50.960;7.138;2022-07-29T03:09:19;100353.25;;;25.62;34.85
41218;BME280;26950;50.960;7.138;2022-07-29T03:11:46;100356.97;;;25.11;35.76
41218;BME280;26950;50.960;7.138;2022-07-29T03:14:12;100360.91;;;25.26;35.30
41218;BME280;26950;50.960;7.138;2022-07-29T03:16:40;100361.56;;;24.81;36.25
41218;BME280;26950;50.960;7.138;2022-07-29T03:19:07;100375.34;;;25.47;34.78
41218;BME280;26950;50.960;7.138;2022-07-29T03:21:34;100390.09;;;23.09;40.24
41218;BME280;26950;50.960;7.138;2022-07-29T03:24:02;100376.56;;;25.13;36.13
41218;BME280;26950;50.960;7.138;2022-07-29T03:26:28;100379.00;;;25.44;35.28
41218;BME280;26950;50.960;7.138;2022-07-29T03:28:55;100393.94;;;25.53;35.08
41218;BME280;26950;50.960;7.138;2022-07-29T03:31:21;100401.16;;;25.27;35.77
41218;BME280;26950;50.960;7.138;2022-07-29T03:33:48;100405.50;;;25.55;35.24
41218;BME280;26950;50.960;7.138;2022-07-29T03:36:14;100400.00;;;25.58;34.99
41218;BME280;26950;50.960;7.138;2022-07-29T03:38:42;100403.59;;;25.59;34.89
41218;BME280;26950;50.960;7.138;2022-07-29T03:41:11;100410.47;;;25.66;34.91
41218;BME280;26950;50.960;7.138;2022-07-29T03:43:40;100405.03;;;25.67;34.69
41218;BME280;26950;50.960;7.138;2022-07-29T03:46:09;100393.75;;;25.58;34.87
41218;BME280;26950;50.960;7.138;2022-07-29T03:48:38;100394.63;;;25.58;34.76
41218;BME280;26950;50.960;7.138;2022-07-29T03:51:06;100396.63;;;25.53;35.02
41218;BME280;26950;50.960;7.138;2022-07-29T03:53:32;100402.81;;;25.55;35.04
41218;BME280;26950;50.960;7.138;2022-07-29T03:56:01;100394.09;;;25.48;35.53
41218;BME280;26950;50.960;7.138;2022-07-29T03:58:31;100399.72;;;25.66;35.37
41218;BME280;26950;50.960;7.138;2022-07-29T04:00:58;100397.84;;;25.68;35.16
41218;BME280;26950;50.960;7.138;2022-07-29T04:03:24;100397.84;;;25.68;34.88
41218;BME280;26950;50.960;7.138;2022-07-29T04:05:59;100399.75;;;25.64;35.12
41218;BME280;26950;50.960;7.138;2022-07-29T04:08:25;100393.47;;;25.65;35.05
41218;BME280;26950;50.960;7.138;2022-07-29T04:10:52;100397.28;;;25.60;35.33
41218;BME280;26950;50.960;7.138;2022-07-29T04:13:19;100397.19;;;25.61;35.42
41218;BME280;26950;50.960;7.138;2022-07-29T04:15:47;100405.44;;;25.56;35.48
41218;BME280;26950;50.960;7.138;2022-07-29T04:18:13;100404.47;;;25.59;35.56
41218;BME280;26950;50.960;7.138;2022-07-29T04:20:40;100413.44;;;25.58;35.74
41218;BME280;26950;50.960;7.138;2022-07-29T04:23:06;100400.94;;;25.57;35.99
41218;BME280;26950;50.960;7.138;2022-07-29T04:25:33;100406.22;;;25.60;35.85
41218;BME280;26950;50.960;7.138;2022-07-29T04:27:59;100408.03;;;25.58;35.49
41218;BME280;26950;50.960;7.138;2022-07-29T04:30:29;100414.19;;;25.62;35.49
41218;BME280;26950;50.960;7.138;2022-07-29T04:32:57;100413.41;;;25.35;36.13
41218;BME280;26950;50.960;7.138;2022-07-29T04:35:24;100412.63;;;25.56;35.58
41218;BME280;26950;50.960;7.138;2022-07-29T04:37:50;100416.06;;;25.60;35.62
41218;BME280;26950;50.960;7.138;2022-07-29T04:40:16;100416.94;;;25.60;35.21
41218;BME280;26950;50.960;7.138;2022-07-29T04:42:43;100413.19;;;25.64;35.42
41218;BME280;26950;50.960;7.138;2022-07-29T04:45:09;100412.28;;;25.65;35.81
41218;BME280;26950;50.960;7.138;2022-07-29T04:47:36;100407.00;;;25.62;35.49
41218;BME280;26950;50.960;7.138;2022-07-29T04:50:05;100398.84;;;25.65;35.25
41218;BME280;26950;50.960;7.138;2022-07-29T04:52:32;100398.94;;;25.62;35.34
41218;BME280;26950;50.960;7.138;2022-07-29T04:54:59;100407.81;;;25.64;35.02
41218;BME280;26950;50.960;7.138;2022-07-29T04:57:26;100407.88;;;25.63;35.22
41218;BME280;26950;50.960;7.138;2022-07-29T04:59:52;100405.13;;;25.64;35.18
41218;BME280;26950;50.960;7.138;2022-07-29T05:02:19;100406.91;;;25.65;35.32
41218;BME280;26950;50.960;7.138;2022-07-29T05:04:45;100401.47;;;25.67;35.50
41218;BME280;26950;50.960;7.138;2022-07-29T05:07:13;100405.84;;;25.69;35.38
41218;BME280;26950;50.960;7.138;2022-07-29T05:09:39;100409.41;;;25.70;35.67
41218;BME280;26950;50.960;7.138;2022-07-29T05:12:06;100411.03;;;25.75;35.52
41218;BME280;26950;50.960;7.138;2022-07-29T05:14:33;100415.44;;;25.76;35.33
41218;BME280;26950;50.960;7.138;2022-07-29T05:16:59;100423.53;;;25.76;35.60
41218;BME280;26950;50.960;7.138;2022-07-29T05:19:26;100419.78;;;25.80;35.23
41218;BME280;26950;50.960;7.138;2022-07-29T05:21:52;100418.91;;;25.80;35.11
41218;BME280;26950;50.960;7.138;2022-07-29T05:24:20;100431.31;;;25.84;35.39
41218;BME280;26950;50.960;7.138;2022-07-29T05:26:46;100431.19;;;25.87;35.17
41218;BME280;26950;50.960;7.138;2022-07-29T05:29:13;100428.56;;;25.86;35.31
41218;BME280;26950;50.960;7.138;2022-07-29T05:31:39;100434.81;;;25.86;35.62
41218;BME280;26950;50.960;7.138;2022-07-29T05:34:06;100437.44;;;25.88;34.83
41218;BME280;26950;50.960;7.138;2022-07-29T05:36:32;100435.13;;;25.78;34.96
41218;BME280;26950;50.960;7.138;2022-07-29T05:38:58;100441.78;;;25.92;34.68
41218;BME280;26950;50.960;7.138;2022-07-29T05:41:26;100451.44;;;25.96;34.97
41218;BME280;26950;50.960;7.138;2022-07-29T05:43:52;100455.91;;;25.97;35.14
41218;BME280;26950;50.960;7.138;2022-07-29T05:46:19;100455.84;;;25.98;34.98
41218;BME280;26950;50.960;7.138;2022-07-29T05:48:45;100455.72;;;26.01;34.50
41218;BME280;26950;50.960;7.138;2022-07-29T05:51:12;100457.66;;;25.98;34.71
41218;BME280;26950;50.960;7.138;2022-07-29T05:53:38;100458.47;;;26.00;34.50
41218;BME280;26950;50.960;7.138;2022-07-29T05:56:05;100458.41;;;26.01;34.73
41218;BME280;26950;50.960;7.138;2022-07-29T05:58:33;100466.22;;;26.09;34.77
41218;BME280;26950;50.960;7.138;2022-07-29T06:01:00;100474.16;;;26.12;34.83
41218;BME280;26950;50.960;7.138;2022-07-29T06:03:26;100478.72;;;26.10;35.32
41218;BME280;26950;50.960;7.138;2022-07-29T06:05:53;100485.91;;;26.09;34.82
41218;BME280;26950;50.960;7.138;2022-07-29T06:08:20;100484.72;;;26.17;34.61
41218;BME280;26950;50.960;7.138;2022-07-29T06:10:46;100488.50;;;25.88;35.52
41218;BME280;26950;50.960;7.138;2022-07-29T06:13:13;100491.69;;;26.22;35.01
41218;BME280;26950;50.960;7.138;2022-07-29T06:15:42;100499.53;;;26.05;35.38
41218;BME280;26950;50.960;7.138;2022-07-29T06:18:08;100497.88;;;26.24;35.12
41218;BME280;26950;50.960;7.138;2022-07-29T06:20:36;100493.53;;;26.20;35.02
41218;BME280;26950;50.960;7.138;2022-07-29T06:23:02;100500.34;;;26.30;35.04
41218;BME280;26950;50.960;7.138;2022-07-29T06:25:30;100489.44;;;26.33;35.45
41218;BME280;26950;50.960;7.138;2022-07-29T06:27:57;100495.50;;;26.40;35.15
41218;BME280;26950;50.960;7.138;2022-07-29T06:30:24;100501.56;;;26.45;35.56
41218;BME280;26950;50.960;7.138;2022-07-29T06:32:51;100511.28;;;26.49;35.33
41218;BME280;26950;50.960;7.138;2022-07-29T06:35:18;100498.59;;;26.53;34.90
41218;BME280;26950;50.960;7.138;2022-07-29T06:37:44;100499.22;;;26.59;35.21
41218;BME280;26950;50.960;7.138;2022-07-29T06:40:11;100492.38;;;26.51;34.92
41218;BME280;26950;50.960;7.138;2022-07-29T06:42:55;100505.09;;;26.69;34.81
41218;BME280;26950;50.960;7.138;2022-07-29T06:45:22;100505.66;;;26.77;34.86
41218;BME280;26950;50.960;7.138;2022-07-29T06:47:49;100502.78;;;26.82;34.64
41218;BME280;26950;50.960;7.138;2022-07-29T06:50:17;100510.94;;;26.80;34.78
41218;BME280;26950;50.960;7.138;2022-07-29T06:52:43;100508.97;;;26.84;34.88
41218;BME280;26950;50.960;7.138;2022-07-29T06:55:10;100504.53;;;26.83;35.12
41218;BME280;26950;50.960;7.138;2022-07-29T06:57:36;100501.66;;;26.87;35.09
41218;BME280;26950;50.960;7.138;2022-07-29T07:00:04;100497.03;;;26.91;34.81
41218;BME280;26950;50.960;7.138;2022-07-29T07:02:31;100504.88;;;26.96;35.12
41218;BME280;26950;50.960;7.138;2022-07-29T07:04:57;100503.16;;;26.95;35.28
41218;BME280;26950;50.960;7.138;2022-07-29T07:07:25;100504.84;;;26.97;34.68
41218;BME280;26950;50.960;7.138;2022-07-29T07:09:52;100503.53;;;26.85;34.43
41218;BME280;26950;50.960;7.138;2022-07-29T07:12:18;100498.53;;;26.98;34.21
41218;BME280;26950;50.960;7.138;2022-07-29T07:14:44;100507.34;;;27.02;34.76
41218;BME280;26950;50.960;7.138;2022-07-29T07:17:11;100510.84;;;27.04;34.75
41218;BME280;26950;50.960;7.138;2022-07-29T07:19:37;100502.56;;;27.10;34.97
41218;BME280;26950;50.960;7.138;2022-07-29T07:22:04;100499.91;;;27.08;34.90
41218;BME280;26950;50.960;7.138;2022-07-29T07:24:32;100501.59;;;27.11;34.89
41218;BME280;26950;50.960;7.138;2022-07-29T07:26:58;100497.28;;;27.07;34.76
41218;BME280;26950;50.960;7.138;2022-07-29T07:29:24;100493.34;;;27.15;34.25
41218;BME280;26950;50.960;7.138;2022-07-29T07:31:51;100491.38;;;27.19;34.54
41218;BME280;26950;50.960;7.138;2022-07-29T07:34:17;100495.88;;;27.19;34.50
41218;BME280;26950;50.960;7.138;2022-07-29T07:36:44;100499.34;;;27.22;34.95
41218;BME280;26950;50.960;7.138;2022-07-29T07:39:10;100499.34;;;27.22;35.12
41218;BME280;26950;50.960;7.138;2022-07-29T07:41:38;100499.28;;;27.24;35.09
41218;BME280;26950;50.960;7.138;2022-07-29T07:44:04;100499.88;;;27.30;34.56
41218;BME280;26950;50.960;7.138;2022-07-29T07:46:31;100508.28;;;27.23;35.27
41218;BME280;26950;50.960;7.138;2022-07-29T07:48:57;100498.81;;;27.34;35.24
41218;BME280;26950;50.960;7.138;2022-07-29T07:51:24;100495.81;;;27.40;34.96
41218;BME280;26950;50.960;7.138;2022-07-29T07:53:50;100494.50;;;27.08;35.90
41218;BME280;26950;50.960;7.138;2022-07-29T07:56:17;100498.66;;;27.37;35.38
41218;BME280;26950;50.960;7.138;2022-07-29T07:58:45;100488.22;;;27.50;35.04
41218;BME280;26950;50.960;7.138;2022-07-29T08:01:11;100486.41;;;27.51;35.41
41218;BME280;26950;50.960;7.138;2022-07-29T08:03:38;100484.19;;;27.60;35.28
41218;BME280;26950;50.960;7.138;2022-07-29T08:06:04;100481.59;;;27.57;35.42
41218;BME280;26950;50.960;7.138;2022-07-29T08:08:31;100480.53;;;27.61;35.81
41218;BME280;26950;50.960;7.138;2022-07-29T08:10:57;100494.81;;;27.63;35.35
41218;BME280;26950;50.960;7.138;2022-07-29T08:13:26;100498.31;;;27.65;34.84
41218;BME280;26950;50.960;7.138;2022-07-29T08:15:54;100493.00;;;27.64;34.83
41218;BME280;26950;50.960;7.138;2022-07-29T08:18:28;100495.16;;;27.56;35.10
41218;BME280;26950;50.960;7.138;2022-07-29T08:20:55;100503.94;;;27.61;34.54
41218;BME280;26950;50.960;7.138;2022-07-29T08:23:22;100493.25;;;27.58;34.75
41218;BME280;26950;50.960;7.138;2022-07-29T08:25:48;100503.03;;;27.40;36.06
41218;BME280;26950;50.960;7.138;2022-07-29T08:28:15;100500.69;;;27.32;36.09
41218;BME280;26950;50.960;7.138;2022-07-29T08:30:42;100496.09;;;27.55;35.63
41218;BME280;26950;50.960;7.138;2022-07-29T08:33:10;100495.59;;;27.65;36.16
41218;BME280;26950;50.960;7.138;2022-07-29T08:35:36;100491.13;;;27.66;36.13
41218;BME280;26950;50.960;7.138;2022-07-29T08:38:04;100494.38;;;27.54;36.00
41218;BME280;26950;50.960;7.138;2022-07-29T08:40:31;100494.03;;;27.61;36.31
41218;BME280;26950;50.960;7.138;2022-07-29T08:42:57;100494.75;;;27.65;36.20
41218;BME280;26950;50.960;7.138;2022-07-29T08:45:24;100493.16;;;27.61;35.66
41218;BME280;26950;50.960;7.138;2022-07-29T08:47:52;100495.09;;;27.17;36.71
41218;BME280;26950;50.960;7.138;2022-07-29T08:50:20;100490.44;;;27.61;35.70
41218;BME280;26950;50.960;7.138;2022-07-29T08:52:46;100493.63;;;27.71;35.78
41218;BME280;26950;50.960;7.138;2022-07-29T08:55:15;100498.81;;;27.75;35.58
41218;BME280;26950;50.960;7.138;2022-07-29T08:57:43;100486.28;;;27.74;35.51
41218;BME280;26950;50.960;7.138;2022-07-29T09:00:10;100487.09;;;27.76;35.63
41218;BME280;26950;50.960;7.138;2022-07-29T09:02:40;100483.31;;;27.80;35.53
41218;BME280;26950;50.960;7.138;2022-07-29T09:05:08;100482.84;;;27.71;36.16
41218;BME280;26950;50.960;7.138;2022-07-29T09:07:36;100484.66;;;27.70;36.17
41218;BME280;26950;50.960;7.138;2022-07-29T09:10:04;100486.28;;;27.74;35.83
41218;BME280;26950;50.960;7.138;2022-07-29T09:12:31;100476.88;;;27.83;36.00
41218;BME280;26950;50.960;7.138;2022-07-29T09:14:57;100481.59;;;27.78;36.36
41218;BME280;26950;50.960;7.138;2022-07-29T09:17:40;100476.16;;;27.79;36.11
41218;BME280;26950;50.960;7.138;2022-07-29T09:20:10;100477.91;;;27.80;36.24
41218;BME280;26950;50.960;7.138;2022-07-29T09:22:39;100475.03;;;27.85;36.73
41218;BME280;26950;50.960;7.138;2022-07-29T09:25:06;100474.88;;;27.88;36.38
41218;BME280;26950;50.960;7.138;2022-07-29T09:27:33;100478.34;;;27.90;36.40
41218;BME280;26950;50.960;7.138;2022-07-29T09:30:02;100476.31;;;27.95;36.57
41218;BME280;26950;50.960;7.138;2022-07-29T09:32:31;100474.41;;;27.97;36.62
41218;BME280;26950;50.960;7.138;2022-07-29T09:35:14;100483.13;;;28.04;36.94
41218;BME280;26950;50.960;7.138;2022-07-29T09:37:42;100486.19;;;27.55;37.23
41218;BME280;26950;50.960;7.138;2022-07-29T09:40:12;100478.16;;;28.13;36.59
41218;BME280;26950;50.960;7.138;2022-07-29T09:42:39;100481.16;;;28.26;36.72
41218;BME280;26950;50.960;7.138;2022-07-29T09:45:06;100484.91;;;26.12;39.67
41218;BME280;26950;50.960;7.138;2022-07-29T09:47:41;100472.94;;;27.71;37.13
41218;BME280;26950;50.960;7.138;2022-07-29T09:50:10;100479.25;;;28.28;36.20
41218;BME280;26950;50.960;7.138;2022-07-29T09:52:46;100470.00;;;28.53;36.56
41218;BME280;26950;50.960;7.138;2022-07-29T09:55:13;100474.38;;;28.74;35.89
41218;BME280;26950;50.960;7.138;2022-07-29T09:57:40;100467.38;;;29.06;35.39
41218;BME280;26950;50.960;7.138;2022-07-29T10:00:09;100468.16;;;29.08;35.57
41218;BME280;26950;50.960;7.138;2022-07-29T10:02:37;100473.50;;;28.73;35.10
41218;BME280;26950;50.960;7.138;2022-07-29T10:05:06;100474.56;;;28.33;35.28
41218;BME280;26950;50.960;7.138;2022-07-29T10:07:47;100474.59;;;29.06;33.92
41218;BME280;26950;50.960;7.138;2022-07-29T10:10:21;100472.03;;;29.02;33.61
41218;BME280;26950;50.960;7.138;2022-07-29T10:12:50;100484.59;;;29.03;34.03
41218;BME280;26950;50.960;7.138;2022-07-29T10:15:17;100474.59;;;29.06;34.29
41218;BME280;26950;50.960;7.138;2022-07-29T10:17:44;100474.34;;;29.10;34.50
41218;BME280;26950;50.960;7.138;2022-07-29T10:20:11;100476.13;;;29.11;33.94
41218;BME280;26950;50.960;7.138;2022-07-29T10:22:38;100478.19;;;29.06;34.18
41218;BME280;26950;50.960;7.138;2022-07-29T10:25:07;100476.25;;;29.08;34.14
41218;BME280;26950;50.960;7.138;2022-07-29T10:27:35;100479.13;;;29.05;34.34
41218;BME280;26950;50.960;7.138;2022-07-29T10:30:01;100481.09;;;28.65;34.87
41218;BME280;26950;50.960;7.138;2022-07-29T10:32:37;100481.59;;;29.10;34.20
41218;BME280;26950;50.960;7.138;2022-07-29T10:35:15;100482.06;;;29.00;34.20
41218;BME280;26950;50.960;7.138;2022-07-29T10:37:56;100486.56;;;28.26;35.93
41218;BME280;26950;50.960;7.138;2022-07-29T10:40:38;100488.53;;;28.22;35.91
41218;BME280;26950;50.960;7.138;2022-07-29T10:43:27;100487.25;;;28.86;34.78
41218;BME280;26950;50.960;7.138;2022-07-29T10:45:56;100484.75;;;28.45;35.71
41218;BME280;26950;50.960;7.138;2022-07-29T10:48:23;100487.44;;;28.64;35.56
41218;BME280;26950;50.960;7.138;2022-07-29T10:50:54;100479.38;;;29.00;34.93
41218;BME280;26950;50.960;7.138;2022-07-29T10:53:21;100482.63;;;28.52;36.63
41218;BME280;26950;50.960;7.138;2022-07-29T10:55:50;100483.34;;;29.11;35.34
41218;BME280;26950;50.960;7.138;2022-07-29T10:58:18;100486.44;;;29.20;35.08
41218;BME280;26950;50.960;7.138;2022-07-29T11:00:46;100487.88;;;29.27;35.08
41218;BME280;26950;50.960;7.138;2022-07-29T11:03:44;100482.38;;;29.29;35.35
41218;BME280;26950;50.960;7.138;2022-07-29T11:06:11;100482.31;;;29.13;35.32
41218;BME280;26950;50.960;7.138;2022-07-29T11:08:38;100477.38;;;29.39;35.17
41218;BME280;26950;50.960;7.138;2022-07-29T11:11:35;100474.53;;;29.42;35.84
41218;BME280;26950;50.960;7.138;2022-07-29T11:14:05;100476.91;;;29.31;35.56
41218;BME280;26950;50.960;7.138;2022-07-29T11:17:01;100484.66;;;29.55;35.18
41218;BME280;26950;50.960;7.138;2022-07-29T11:19:29;100485.34;;;29.07;35.68
41218;BME280;26950;50.960;7.138;2022-07-29T11:21:56;100482.69;;;29.40;35.18
41218;BME280;26950;50.960;7.138;2022-07-29T11:24:24;100494.25;;;29.44;35.43
41218;BME280;26950;50.960;7.138;2022-07-29T11:27:14;100480.75;;;29.61;35.18
41218;BME280;26950;50.960;7.138;2022-07-29T11:29:49;100487.34;;;29.55;34.74
41218;BME280;26950;50.960;7.138;2022-07-29T11:32:17;100484.13;;;29.47;34.81
41218;BME280;26950;50.960;7.138;2022-07-29T11:34:45;100479.44;;;29.16;34.92
41218;BME280;26950;50.960;7.138;2022-07-29T11:37:17;100483.50;;;29.60;34.05
41218;BME280;26950;50.960;7.138;2022-07-29T11:39:45;100475.25;;;29.63;34.22
41218;BME280;26950;50.960;7.138;2022-07-29T11:42:39;100477.31;;;29.75;33.97
41218;BME280;26950;50.960;7.138;2022-07-29T11:45:07;100471.75;;;29.61;34.40
41218;BME280;26950;50.960;7.138;2022-07-29T11:47:36;100472.03;;;29.72;34.68
41218;BME280;26950;50.960;7.138;2022-07-29T11:50:04;100479.44;;;29.16;35.68
41218;BME280;26950;50.960;7.138;2022-07-29T11:52:33;100479.44;;;29.16;35.52
41218;BME280;26950;50.960;7.138;2022-07-29T11:55:04;100466.09;;;29.65;34.08
41218;BME280;26950;50.960;7.138;2022-07-29T11:57:31;100473.13;;;29.85;34.06
41218;BME280;26950;50.960;7.138;2022-07-29T12:00:01;100464.06;;;29.86;34.36
41218;BME280;26950;50.960;7.138;2022-07-29T12:02:38;100472.06;;;30.05;34.05
41218;BME280;26950;50.960;7.138;2022-07-29T12:05:07;100463.84;;;30.06;33.74
41218;BME280;26950;50.960;7.138;2022-07-29T12:07:34;100466.88;;;30.00;33.50
41218;BME280;26950;50.960;7.138;2022-07-29T12:10:03;100464.56;;;29.77;33.87
41218;BME280;26950;50.960;7.138;2022-07-29T12:12:30;100462.16;;;29.88;34.16
41218;BME280;26950;50.960;7.138;2022-07-29T12:14:56;100470.41;;;29.52;34.04
41218;BME280;26950;50.960;7.138;2022-07-29T12:17:28;100470.63;;;29.98;33.00
41218;BME280;26950;50.960;7.138;2022-07-29T12:19:55;100466.69;;;29.54;33.53
41218;BME280;26950;50.960;7.138;2022-07-29T12:22:25;100467.38;;;29.91;32.67
41218;BME280;26950;50.960;7.138;2022-07-29T12:24:52;100464.94;;;29.87;33.45
41218;BME280;26950;50.960;7.138;2022-07-29T12:27:19;100470.47;;;29.50;33.86
41218;BME280;26950;50.960;7.138;2022-07-29T12:29:55;100463.75;;;29.92;32.45
41218;BME280;26950;50.960;7.138;2022-07-29T12:32:22;100472.69;;;30.10;32.32
41218;BME280;26950;50.960;7.138;2022-07-29T12:34:50;100467.53;;;30.21;32.56
41218;BME280;26950;50.960;7.138;2022-07-29T12:37:17;100470.88;;;30.26;32.27
41218;BME280;26950;50.960;7.138;2022-07-29T12:39:43;100463.97;;;30.21;32.55
41218;BME280;26950;50.960;7.138;2022-07-29T12:42:11;100465.56;;;30.25;32.50
41218;BME280;26950;50.960;7.138;2022-07-29T12:44:45;100475.16;;;30.30;32.75
41218;BME280;26950;50.960;7.138;2022-07-29T12:47:12;100467.97;;;30.29;32.77
41218;BME280;26950;50.960;7.138;2022-07-29T12:49:39;100469.16;;;30.08;32.09
41218;BME280;26950;50.960;7.138;2022-07-29T12:52:25;100468.50;;;30.20;31.81
41218;BME280;26950;50.960;7.138;2022-07-29T12:54:51;100468.28;;;30.07;31.66
41218;BME280;26950;50.960;7.138;2022-07-29T12:57:18;100461.69;;;30.13;31.39
41218;BME280;26950;50.960;7.138;2022-07-29T12:59:44;100464.00;;;30.03;31.27
41218;BME280;26950;50.960;7.138;2022-07-29T13:02:20;100464.50;;;29.94;31.30